Terminal Aerodrome Forecast
Issued by NWS El Paso, TX

Home | Current Version | Previous Version | Text Only | Print | Product List | Glossary On
Versions: 1 2 3 4 5 6 7 8 9 10 11 12 13 14
000
FTUS44 KEPZ 240520
TAFELP
TAF
KELP 240520Z 2406/2506 22010KT P6SM SCT250
     FM240800 23017G27KT P6SM FEW120 BKN200
     FM241200 25026G35KT P6SM SCT120 BKN200
     FM250000 28020G30KT P6SM SCT100 BKN180=

USA.gov is the U.S. government's official web portal to all federal, state and local government web resources and services.